Time;durP1;ratioP1;P1;durP2;ratioP2;P2;SDS_P1;SDS_P2;PMS_P1;PMS_P2;Temp;Humidity;BMP_temperature;BMP_pressure;BME280_temperature;BME280_humidity;BME280_pressure;Samples;Min_cycle;Max_cycle;Signal;HPM_P1;HPM_P2
2023/09/12 00:00:29;;;;;;;20.20;8.80;;;;;;;15.99;83.98;100000.23;109834;1284;22205;-81
2023/09/12 00:03:23;;;;;;;18.60;8.40;;;;;;;15.95;83.81;99998.63;109797;1284;22264;-81
2023/09/12 00:05:57;;;;;;;20.10;9.30;;;;;;;15.93;83.69;99994.38;109799;1284;22129;-81
2023/09/12 00:08:28;;;;;;;19.30;9.10;;;;;;;15.92;83.62;99989.67;109777;1284;22156;-81
2023/09/12 00:11:06;;;;;;;23.50;8.90;;;;;;;15.91;83.82;99988.56;109810;1284;22246;-82
2023/09/12 00:13:36;;;;;;;20.10;9.40;;;;;;;15.90;83.91;99987.19;109765;1284;22967;-81
2023/09/12 00:16:10;;;;;;;22.80;8.80;;;;;;;15.90;84.55;99989.75;109800;1284;22164;-81
2023/09/12 00:18:42;;;;;;;20.40;9.90;;;;;;;15.87;84.75;99989.50;109791;1276;22224;-81
2023/09/12 00:21:13;;;;;;;20.00;8.70;;;;;;;15.88;84.70;99989.25;109803;1282;22456;-81
2023/09/12 00:23:43;;;;;;;18.40;8.90;;;;;;;15.86;84.66;99994.23;109806;1284;22174;-81
2023/09/12 00:26:14;;;;;;;23.30;9.70;;;;;;;15.85;84.89;99984.30;109795;1284;22925;-81
2023/09/12 00:28:45;;;;;;;19.50;9.50;;;;;;;15.83;84.61;99986.71;109811;1285;22141;-81
2023/09/12 00:31:16;;;;;;;21.30;8.90;;;;;;;15.81;84.75;99989.95;109811;1284;22594;-81
2023/09/12 00:33:46;;;;;;;19.20;8.90;;;;;;;15.78;84.90;99991.71;109826;1284;22144;-81
2023/09/12 00:36:17;;;;;;;21.60;9.10;;;;;;;15.75;84.87;99991.11;109784;1284;22191;-81
2023/09/12 00:38:48;;;;;;;21.10;9.90;;;;;;;15.72;84.87;99991.75;109810;1284;22901;-81
2023/09/12 00:41:18;;;;;;;19.20;9.00;;;;;;;15.71;84.72;99991.40;109831;1284;22166;-81
2023/09/12 00:43:49;;;;;;;21.20;10.10;;;;;;;15.67;84.73;99993.58;109774;1284;22946;-81
2023/09/12 00:46:22;;;;;;;18.70;9.10;;;;;;;15.62;84.87;99990.36;109760;1283;22290;-81
2023/09/12 00:48:54;;;;;;;20.20;10.20;;;;;;;15.57;84.89;99993.83;109815;1284;22353;-81
2023/09/12 00:51:26;;;;;;;20.40;8.30;;;;;;;15.53;84.99;99996.92;109829;1277;23309;-81
2023/09/12 00:53:57;;;;;;;18.10;8.70;;;;;;;15.49;85.00;99998.58;109804;1284;22159;-81
2023/09/12 00:56:29;;;;;;;19.80;9.10;;;;;;;15.45;85.08;99997.11;109785;1284;22187;-81
2023/09/12 00:59:00;;;;;;;21.20;9.30;;;;;;;15.41;84.90;100001.40;109811;1284;23322;-81
2023/09/12 01:01:32;;;;;;;21.30;8.70;;;;;;;15.36;85.02;99999.58;109843;1284;22206;-81
2023/09/12 01:04:04;;;;;;;21.00;8.50;;;;;;;15.33;85.19;100004.60;109771;1279;22147;-81
2023/09/12 01:06:35;;;;;;;16.30;7.40;;;;;;;15.31;85.13;100000.96;109818;1284;23372;-81
2023/09/12 01:09:07;;;;;;;19.60;8.30;;;;;;;15.30;85.03;99996.48;109838;1276;22265;-81
2023/09/12 01:11:38;;;;;;;19.40;9.00;;;;;;;15.29;85.05;99994.13;109809;1284;22186;-81
2023/09/12 01:14:09;;;;;;;17.20;8.30;;;;;;;15.25;85.25;99990.26;109780;1284;22405;-81
2023/09/12 01:16:40;;;;;;;18.10;8.50;;;;;;;15.21;85.27;99992.67;109828;1284;22160;-82
2023/09/12 01:19:14;;;;;;;19.70;8.50;;;;;;;15.18;85.42;99991.27;109820;1284;22311;-81
2023/09/12 01:22:02;;;;;;;15.40;7.50;;;;;;;15.16;85.50;99994.64;109811;1277;22205;-82
2023/09/12 01:25:07;;;;;;;16.30;8.30;;;;;;;15.13;85.41;99989.70;109784;1284;22223;-81
2023/09/12 01:27:42;;;;;;;19.70;9.30;;;;;;;15.10;85.52;99991.80;109459;1288;22188;-80
2023/09/12 01:30:13;;;;;;;17.80;8.40;;;;;;;15.06;85.68;99986.54;109449;1288;22220;-81
2023/09/12 01:32:44;;;;;;;17.10;8.10;;;;;;;15.03;85.82;99986.76;109427;1286;22201;-81
2023/09/12 01:35:15;;;;;;;17.20;7.40;;;;;;;15.01;85.72;99988.51;109423;1288;22222;-81
2023/09/12 01:37:46;;;;;;;20.40;9.00;;;;;;;15.03;85.71;99986.81;109472;1289;22231;-80
2023/09/12 01:40:17;;;;;;;19.30;8.40;;;;;;;15.03;85.87;99985.88;109455;1289;22184;-81
2023/09/12 01:42:49;;;;;;;20.90;9.80;;;;;;;15.03;86.14;99988.23;109449;1289;22296;-81
2023/09/12 01:45:21;;;;;;;17.60;9.70;;;;;;;15.02;86.45;99990.70;109434;1289;22233;-81
2023/09/12 01:47:52;;;;;;;18.70;9.50;;;;;;;15.00;86.70;99987.23;109452;1289;22296;-81
2023/09/12 01:50:26;;;;;;;20.50;9.40;;;;;;;14.99;86.78;99988.31;109416;1283;22204;-81
2023/09/12 01:52:57;;;;;;;19.30;9.90;;;;;;;14.97;86.78;99989.23;109433;1289;22269;-81
2023/09/12 01:55:28;;;;;;;22.10;10.80;;;;;;;14.97;86.70;99993.42;109399;1289;22265;-81
2023/09/12 01:58:00;;;;;;;20.60;10.20;;;;;;;14.96;86.85;99995.83;109366;1289;22231;-81
2023/09/12 02:00:31;;;;;;;21.80;10.30;;;;;;;14.94;86.97;99993.48;109382;1289;22184;-81
2023/09/12 02:03:02;;;;;;;19.80;10.00;;;;;;;14.93;87.09;99992.88;109340;1289;22355;-81
2023/09/12 02:05:33;;;;;;;20.10;9.70;;;;;;;14.89;86.97;99992.23;109606;1284;23421;-81
2023/09/12 02:08:05;;;;;;;19.70;9.30;;;;;;;14.87;87.03;99989.45;109790;1284;22997;-81
2023/09/12 02:10:36;;;;;;;19.00;9.70;;;;;;;14.83;87.07;99987.08;109811;1284;22147;-81
2023/09/12 02:13:07;;;;;;;18.60;9.30;;;;;;;14.81;86.95;99989.02;109812;1284;23201;-82
2023/09/12 02:15:37;;;;;;;20.10;8.80;;;;;;;14.79;86.95;99988.46;109815;1280;22309;-81
2023/09/12 02:18:08;;;;;;;20.20;10.10;;;;;;;14.77;87.05;99990.15;109848;1277;22207;-82
2023/09/12 02:20:45;;;;;;;24.20;10.50;;;;;;;14.76;87.34;99991.33;109020;1281;22554;-81
2023/09/12 02:23:16;;;;;;;22.10;11.00;;;;;;;14.73;87.36;99993.68;109923;1280;22268;-81
2023/09/12 02:25:47;;;;;;;20.60;9.40;;;;;;;14.72;87.38;99989.19;109832;1276;22149;-81
2023/09/12 02:28:18;;;;;;;19.90;10.20;;;;;;;14.75;87.51;99987.95;109797;1281;23091;-81
2023/09/12 02:30:48;;;;;;;22.30;10.50;;;;;;;14.74;87.52;99991.79;109837;1284;22202;-81
2023/09/12 02:33:19;;;;;;;21.80;11.90;;;;;;;14.73;87.62;99989.66;109814;1284;22966;-81
2023/09/12 02:35:50;;;;;;;22.60;10.90;;;;;;;14.72;87.88;99990.83;109726;1284;22801;-82
2023/09/12 02:38:21;;;;;;;25.00;12.90;;;;;;;14.70;88.02;99992.27;109776;1279;22334;-82
2023/09/12 02:40:52;;;;;;;23.90;12.30;;;;;;;14.67;88.12;99991.69;109789;1284;22620;-82
2023/09/12 02:43:26;;;;;;;26.80;11.80;;;;;;;14.66;88.11;99991.09;109791;1284;22219;-82
2023/09/12 02:45:57;;;;;;;25.10;12.50;;;;;;;14.64;88.11;99986.59;109795;1284;22177;-81
2023/09/12 02:48:29;;;;;;;23.70;12.20;;;;;;;14.62;88.15;99987.16;109788;1284;22190;-82
2023/09/12 02:51:02;;;;;;;25.30;13.20;;;;;;;14.59;88.34;99984.05;109832;1284;22181;-81
2023/09/12 02:53:33;;;;;;;24.00;12.10;;;;;;;14.57;88.57;99987.62;109832;1284;22599;-82
2023/09/12 02:56:04;;;;;;;25.10;13.00;;;;;;;14.55;88.52;99988.24;109790;1277;22159;-82
2023/09/12 02:58:35;;;;;;;23.20;11.40;;;;;;;14.54;88.69;99988.61;109800;1284;22179;-82
2023/09/12 03:01:06;;;;;;;21.90;11.80;;;;;;;14.52;88.76;99985.08;109799;1280;22423;-81
2023/09/12 03:03:37;;;;;;;22.40;11.30;;;;;;;14.51;88.60;99992.79;109812;1284;22317;-81
2023/09/12 03:06:07;;;;;;;24.30;12.20;;;;;;;14.50;88.63;99993.00;109781;1284;22210;-81
2023/09/12 03:08:38;;;;;;;24.50;12.70;;;;;;;14.49;88.56;99994.98;109825;1277;22202;-82
2023/09/12 03:11:09;;;;;;;25.10;12.10;;;;;;;14.49;88.65;99993.20;109789;1284;22162;-82
2023/09/12 03:13:41;;;;;;;24.00;12.60;;;;;;;14.48;88.76;99995.50;109820;1283;22202;-81
2023/09/12 03:16:14;;;;;;;22.30;12.20;;;;;;;14.47;88.77;99994.58;109797;1280;22170;-82
2023/09/12 03:18:44;;;;;;;27.80;14.20;;;;;;;14.44;88.93;99997.39;109824;1284;22182;-81
2023/09/12 03:21:15;;;;;;;25.80;12.50;;;;;;;14.42;88.93;100002.20;109827;1284;22176;-82
2023/09/12 03:23:46;;;;;;;21.40;11.30;;;;;;;14.41;88.99;99994.28;109828;1279;22260;-81
2023/09/12 03:26:17;;;;;;;28.10;13.50;;;;;;;14.39;89.03;99997.29;109791;1280;22154;-81
2023/09/12 03:28:49;;;;;;;24.10;12.60;;;;;;;14.37;89.14;99998.98;109811;1284;22281;-82
2023/09/12 03:31:21;;;;;;;25.30;12.70;;;;;;;14.37;89.10;99998.89;109736;1282;22163;-81
2023/09/12 03:33:52;;;;;;;21.50;11.00;;;;;;;14.34;89.08;100003.52;109823;1284;22185;-78
2023/09/12 03:36:22;;;;;;;25.40;11.70;;;;;;;14.30;89.03;100002.76;109799;1280;23273;-80
2023/09/12 03:38:53;;;;;;;22.50;11.90;;;;;;;14.26;88.83;100001.95;109808;1276;22190;-82
2023/09/12 03:41:25;;;;;;;24.10;11.80;;;;;;;14.23;88.70;100000.02;109790;1277;22174;-81
2023/09/12 03:43:57;;;;;;;21.10;10.50;;;;;;;14.19;88.61;100000.58;109807;1276;23406;-81
2023/09/12 03:46:27;;;;;;;23.90;11.00;;;;;;;14.14;88.57;99999.40;109806;1276;22256;-81
2023/09/12 03:48:58;;;;;;;26.40;11.40;;;;;;;14.10;88.67;100002.00;109816;1284;22642;-81
2023/09/12 03:51:29;;;;;;;30.70;11.20;;;;;;;14.06;88.61;100001.08;109814;1284;22185;-81
2023/09/12 03:53:59;;;;;;;26.10;10.80;;;;;;;14.02;88.65;100000.73;109801;1280;22212;-82
2023/09/12 03:56:31;;;;;;;33.80;11.70;;;;;;;13.99;88.66;100000.45;109812;1280;22483;-79
2023/09/12 03:59:02;;;;;;;26.30;12.10;;;;;;;13.96;88.69;99998.05;109803;1284;22171;-80
2023/09/12 04:01:33;;;;;;;31.70;12.00;;;;;;;13.91;88.59;99994.89;109803;1282;22220;-78
2023/09/12 04:04:04;;;;;;;32.00;12.30;;;;;;;13.87;88.88;99994.63;109752;1279;22241;-78
2023/09/12 04:06:35;;;;;;;22.50;10.30;;;;;;;13.83;88.64;99995.14;109731;1285;22329;-79
2023/09/12 04:09:06;;;;;;;23.10;10.30;;;;;;;13.79;88.60;99992.67;109783;1285;23022;-79
2023/09/12 04:11:37;;;;;;;22.70;10.40;;;;;;;13.76;88.64;99999.05;109727;1285;22926;-78
2023/09/12 04:14:08;;;;;;;21.70;11.00;;;;;;;13.75;88.67;99995.37;109762;1283;22182;-78
2023/09/12 04:16:39;;;;;;;24.10;11.50;;;;;;;13.73;88.67;99996.38;109769;1285;23295;-80
2023/09/12 04:19:09;;;;;;;27.30;11.10;;;;;;;13.70;88.86;99997.75;109733;1280;22247;-82
2023/09/12 04:21:40;;;;;;;25.60;10.40;;;;;;;13.68;88.80;99999.38;109772;1285;23108;-79
2023/09/12 04:24:12;;;;;;;23.10;9.80;;;;;;;13.66;88.87;99997.59;109726;1285;22329;-77
2023/09/12 04:26:43;;;;;;;23.40;10.50;;;;;;;13.65;88.77;99996.21;109790;1285;22162;-78
2023/09/12 04:29:14;;;;;;;23.20;10.10;;;;;;;13.64;88.84;99995.91;109721;1280;22199;-77
2023/09/12 04:31:45;;;;;;;27.70;11.00;;;;;;;13.61;88.95;99998.58;109715;1285;22410;-78
2023/09/12 04:34:16;;;;;;;24.50;11.40;;;;;;;13.59;89.16;100000.27;109642;1285;22141;-77
2023/09/12 04:36:47;;;;;;;20.80;10.20;;;;;;;13.57;89.36;100001.58;109743;1280;22174;-77
2023/09/12 04:39:18;;;;;;;26.10;10.70;;;;;;;13.55;89.36;99999.89;109689;1279;22408;-77
2023/09/12 04:41:48;;;;;;;27.30;12.70;;;;;;;13.55;89.45;99995.87;109726;1280;23340;-77
2023/09/12 04:44:19;;;;;;;23.80;11.60;;;;;;;13.54;89.53;99995.77;109643;1284;22865;-77
2023/09/12 04:46:50;;;;;;;22.40;10.80;;;;;;;13.54;89.69;100001.84;109713;1277;22227;-77
2023/09/12 04:49:20;;;;;;;26.10;11.80;;;;;;;13.53;89.72;99999.49;109757;1277;22242;-77
2023/09/12 04:51:51;;;;;;;22.80;10.60;;;;;;;13.53;89.88;100006.22;109765;1279;22173;-77
2023/09/12 04:54:22;;;;;;;23.20;10.40;;;;;;;13.52;90.00;100004.23;109757;1284;22218;-77
2023/09/12 04:56:53;;;;;;;21.90;10.40;;;;;;;13.52;89.97;100007.09;109768;1284;22288;-77
2023/09/12 04:59:24;;;;;;;27.70;11.90;;;;;;;13.53;90.04;100003.58;109769;1284;22273;-77
2023/09/12 05:01:55;;;;;;;26.80;12.10;;;;;;;13.53;90.20;100004.73;109748;1282;22128;-77
2023/09/12 05:04:25;;;;;;;26.20;11.00;;;;;;;13.54;90.46;100001.23;109754;1279;22336;-77
2023/09/12 05:06:56;;;;;;;22.90;10.00;;;;;;;13.56;90.55;100003.33;109758;1280;22200;-77
2023/09/12 05:09:27;;;;;;;22.50;10.20;;;;;;;13.58;90.57;100004.86;109688;1273;22395;-77
2023/09/12 05:11:58;;;;;;;25.20;10.80;;;;;;;13.61;90.83;100008.39;109709;1284;23008;-77
2023/09/12 05:14:28;;;;;;;23.80;10.70;;;;;;;13.64;90.96;100007.13;109686;1277;22200;-77
2023/09/12 05:17:05;;;;;;;25.90;11.80;;;;;;;13.69;90.98;100010.20;109720;1277;22272;-78
2023/09/12 05:19:36;;;;;;;23.80;11.00;;;;;;;13.74;91.35;100014.80;109665;1280;22184;-78
2023/09/12 05:22:07;;;;;;;31.50;11.10;;;;;;;13.79;91.33;100017.27;109661;1273;22193;-76
2023/09/12 05:24:38;;;;;;;22.60;10.70;;;;;;;13.85;91.20;100020.09;109678;1280;22927;-77
2023/09/12 05:27:08;;;;;;;26.80;13.30;;;;;;;13.91;91.22;100019.77;109684;1279;22170;-76
2023/09/12 05:29:39;;;;;;;28.70;14.20;;;;;;;13.98;91.58;100019.63;109687;1280;22312;-77
2023/09/12 05:32:10;;;;;;;29.60;13.40;;;;;;;14.04;91.64;100021.73;109666;1285;22410;-76
2023/09/12 05:34:41;;;;;;;28.30;12.90;;;;;;;14.11;91.85;100022.58;109690;1279;22159;-76
2023/09/12 05:37:12;;;;;;;29.40;15.00;;;;;;;14.17;91.99;100026.41;109672;1278;22329;-76
2023/09/12 05:39:42;;;;;;;26.00;13.90;;;;;;;14.23;92.17;100026.83;109740;1282;22180;-76
2023/09/12 05:42:14;;;;;;;30.80;13.80;;;;;;;14.29;92.45;100025.02;109623;1280;22374;-77
2023/09/12 05:44:46;;;;;;;31.80;14.60;;;;;;;14.36;92.81;100026.14;109679;1280;22581;-77
2023/09/12 05:47:17;;;;;;;30.30;14.90;;;;;;;14.42;93.29;100026.61;109718;1280;22298;-78
2023/09/12 05:49:48;;;;;;;36.70;15.10;;;;;;;14.49;93.62;100027.02;109735;1284;22165;-76
2023/09/12 05:52:18;;;;;;;29.70;13.90;;;;;;;14.55;93.44;100027.16;109699;1283;22341;-77
2023/09/12 05:54:50;;;;;;;31.10;15.30;;;;;;;14.63;93.43;100025.11;109683;1284;22300;-76
2023/09/12 05:57:20;;;;;;;30.60;15.70;;;;;;;14.71;93.94;100024.02;109739;1276;22216;-77
2023/09/12 05:59:51;;;;;;;32.20;15.40;;;;;;;14.79;94.06;100023.87;109771;1277;23354;-78
2023/09/12 06:02:22;;;;;;;39.70;18.10;;;;;;;14.87;94.09;100022.94;109754;1277;22294;-77
2023/09/12 06:04:53;;;;;;;31.50;15.80;;;;;;;14.95;94.40;100022.41;109728;1277;22183;-77
2023/09/12 06:07:24;;;;;;;37.10;15.90;;;;;;;15.04;94.66;100020.45;109387;1276;22564;-75
2023/09/12 06:09:55;;;;;;;28.90;16.20;;;;;;;15.13;95.28;100025.69;107124;1283;22568;-76
2023/09/12 06:12:26;;;;;;;37.40;17.40;;;;;;;15.21;95.37;100023.45;107435;1277;22500;-76
2023/09/12 06:14:57;;;;;;;37.00;18.90;;;;;;;15.30;95.60;100020.98;106803;1277;23349;-77
2023/09/12 06:17:27;;;;;;;43.10;18.00;;;;;;;15.38;95.68;100018.34;106651;1276;26552;-77
2023/09/12 06:19:58;;;;;;;33.90;17.30;;;;;;;15.47;96.10;100020.53;106660;1276;22530;-77
2023/09/12 06:22:29;;;;;;;37.00;18.30;;;;;;;15.56;96.47;100013.23;106674;1277;22544;-77
2023/09/12 06:25:00;;;;;;;42.00;20.40;;;;;;;15.66;96.84;100016.39;106787;1282;26544;-77
2023/09/12 06:27:31;;;;;;;31.50;17.60;;;;;;;15.73;96.76;100013.70;106813;1280;23046;-77
2023/09/12 06:30:02;;;;;;;33.40;18.40;;;;;;;15.83;97.21;100019.31;106919;1280;22648;-77
2023/09/12 06:32:33;;;;;;;33.20;16.80;;;;;;;15.91;97.44;100015.73;106972;1276;22926;-77
2023/09/12 06:35:07;;;;;;;27.00;16.30;;;;;;;16.01;97.71;100009.48;106815;1280;22572;-77
2023/09/12 06:37:38;;;;;;;35.30;18.00;;;;;;;16.11;97.69;100010.68;106900;1284;22605;-76
2023/09/12 06:40:10;;;;;;;35.10;19.00;;;;;;;16.21;97.77;100013.23;106933;1278;23447;-76
2023/09/12 06:42:42;;;;;;;30.10;18.30;;;;;;;16.31;98.00;100013.86;107017;1280;22562;-77
2023/09/12 06:45:14;;;;;;;31.20;18.20;;;;;;;16.41;98.37;100011.98;107212;1276;22560;-77
2023/09/12 06:47:51;;;;;;;34.10;18.30;;;;;;;16.51;98.24;100013.92;107272;1277;22571;-76
2023/09/12 06:50:23;;;;;;;34.40;17.40;;;;;;;16.61;97.91;100013.39;107235;1274;22665;-77
2023/09/12 06:52:54;;;;;;;31.00;17.10;;;;;;;16.69;97.84;100015.05;107040;1280;22594;-77
2023/09/12 06:55:25;;;;;;;31.80;16.50;;;;;;;16.77;98.12;100015.73;106790;1281;22555;-79
2023/09/12 06:57:57;;;;;;;28.90;15.70;;;;;;;16.87;97.92;100019.95;106864;1283;27484;-78
2023/09/12 07:00:29;;;;;;;29.80;16.10;;;;;;;16.96;98.13;100013.86;106907;1283;26534;-78
2023/09/12 07:03:00;;;;;;;33.40;16.80;;;;;;;17.08;98.43;100012.81;106993;1276;23298;-78
2023/09/12 07:05:31;;;;;;;35.70;18.00;;;;;;;17.19;98.46;100009.10;106995;1276;22559;-78
2023/09/12 07:08:02;;;;;;;34.90;16.90;;;;;;;17.30;98.62;100015.42;106983;1277;22585;-78
2023/09/12 07:10:33;;;;;;;31.50;17.80;;;;;;;17.42;98.41;100015.44;106949;1277;24432;-78
2023/09/12 07:13:04;;;;;;;36.00;16.90;;;;;;;17.52;98.43;100014.61;106875;1280;22569;-78
2023/09/12 07:15:38;;;;;;;29.10;16.70;;;;;;;17.64;97.94;100022.17;106989;1277;23326;-77
2023/09/12 07:18:09;;;;;;;27.50;15.40;;;;;;;17.76;98.27;100022.56;106818;1283;25336;-78
2023/09/12 07:20:40;;;;;;;30.50;15.00;;;;;;;17.87;97.85;100016.45;106674;1277;24529;-78
2023/09/12 07:23:11;;;;;;;34.40;16.20;;;;;;;17.99;97.97;100018.30;106704;1283;24365;-77
2023/09/12 07:25:42;;;;;;;26.70;15.00;;;;;;;18.14;97.68;100021.45;106656;1283;23375;-78
2023/09/12 07:28:14;;;;;;;31.20;15.50;;;;;;;18.27;97.53;100020.95;106723;1277;24251;-78
2023/09/12 07:30:48;;;;;;;28.10;14.60;;;;;;;18.38;96.98;100021.38;106804;1283;22607;-78
2023/09/12 07:33:20;;;;;;;27.30;15.30;;;;;;;18.47;97.00;100020.02;106870;1283;25333;-78
2023/09/12 07:35:52;;;;;;;30.60;16.20;;;;;;;18.62;96.92;100021.78;106887;1277;23463;-79
2023/09/12 07:38:24;;;;;;;27.00;15.20;;;;;;;18.75;96.30;100020.59;106817;1277;24249;-78
2023/09/12 07:40:55;;;;;;;33.60;15.50;;;;;;;18.84;96.13;100020.92;106808;1283;22533;-78
2023/09/12 07:43:26;;;;;;;30.60;14.90;;;;;;;18.95;95.88;100024.64;106856;1283;22553;-78
2023/09/12 07:45:59;;;;;;;27.50;15.00;;;;;;;19.04;95.74;100022.98;106788;1283;25390;-78
2023/09/12 07:48:30;;;;;;;32.10;15.50;;;;;;;19.14;95.35;100022.33;106827;1277;22537;-78
2023/09/12 07:51:01;;;;;;;26.90;14.10;;;;;;;19.28;95.23;100021.42;106884;1260;23245;-78
2023/09/12 07:53:32;;;;;;;25.90;13.40;;;;;;;19.39;94.65;100015.47;106774;1280;22533;-78
2023/09/12 07:56:04;;;;;;;26.60;12.00;;;;;;;19.50;94.30;100016.04;106781;1277;24358;-78
2023/09/12 07:58:35;;;;;;;25.20;12.60;;;;;;;19.66;94.25;100014.20;106735;1277;22556;-78
2023/09/12 08:01:09;;;;;;;29.30;12.60;;;;;;;19.77;93.34;100013.13;106751;1283;25365;-78
2023/09/12 08:03:43;;;;;;;25.10;12.00;;;;;;;19.88;93.07;100009.33;106792;1283;22530;-78
2023/09/12 08:06:15;;;;;;;24.50;12.10;;;;;;;20.00;93.07;100009.23;106827;1283;25236;-78
2023/09/12 08:08:46;;;;;;;24.20;11.20;;;;;;;20.09;92.51;100010.66;106881;1280;25327;-78
2023/09/12 08:11:18;;;;;;;24.10;11.10;;;;;;;20.20;91.89;100009.72;106922;1283;25337;-78
2023/09/12 08:13:51;;;;;;;24.40;10.90;;;;;;;20.32;91.33;100010.23;106908;1283;22557;-78
2023/09/12 08:16:22;;;;;;;28.60;12.10;;;;;;;20.43;90.97;100011.55;106953;1279;22731;-78
2023/09/12 08:18:53;;;;;;;22.60;9.90;;;;;;;20.58;90.81;100010.20;106949;1283;22559;-78
2023/09/12 08:21:23;;;;;;;25.60;11.20;;;;;;;20.76;90.55;100006.32;106930;1277;22571;-78
2023/09/12 08:23:55;;;;;;;21.10;9.80;;;;;;;20.87;89.90;100007.69;106758;1276;22589;-78
2023/09/12 08:26:26;;;;;;;23.60;10.70;;;;;;;20.98;89.48;100006.32;106834;1272;24357;-79
2023/09/12 08:28:57;;;;;;;22.20;9.90;;;;;;;21.06;89.02;100004.77;106627;1284;25739;-79
2023/09/12 08:31:28;;;;;;;24.20;11.00;;;;;;;21.18;89.01;100004.64;106792;1283;22530;-79
2023/09/12 08:33:59;;;;;;;25.60;11.40;;;;;;;21.31;88.83;100007.05;106748;1283;22678;-79
2023/09/12 08:36:30;;;;;;;23.10;10.40;;;;;;;21.37;87.75;100009.02;106828;1280;22571;-79
2023/09/12 08:39:01;;;;;;;21.30;9.80;;;;;;;21.40;87.24;100006.39;106881;1283;22720;-79
2023/09/12 08:41:32;;;;;;;24.40;10.00;;;;;;;21.46;86.95;100005.17;106878;1277;25346;-79
2023/09/12 08:44:05;;;;;;;22.70;11.40;;;;;;;21.54;86.39;100006.04;106878;1280;25387;-80
2023/09/12 08:46:37;;;;;;;23.50;10.60;;;;;;;21.62;86.11;100008.32;106762;1277;22557;-79
2023/09/12 08:49:09;;;;;;;23.00;10.50;;;;;;;21.69;85.60;100009.21;106830;1283;24547;-79
2023/09/12 08:51:40;;;;;;;21.10;10.90;;;;;;;21.75;85.39;100009.59;106884;1276;22569;-77
2023/09/12 08:54:14;;;;;;;24.50;10.30;;;;;;;21.84;85.29;100011.38;107112;1277;24292;-78
2023/09/12 08:56:46;;;;;;;23.90;10.00;;;;;;;21.95;84.99;100013.89;107825;1283;25442;-81
2023/09/12 08:59:17;;;;;;;20.30;9.70;;;;;;;22.08;84.63;100013.51;107761;1284;23207;-81
2023/09/12 09:01:52;;;;;;;22.20;9.90;;;;;;;22.25;84.59;100012.13;107688;1283;22517;-81
2023/09/12 09:04:26;;;;;;;22.10;9.50;;;;;;;22.40;84.12;100014.20;107808;1280;22796;-82
2023/09/12 09:06:58;;;;;;;21.30;9.80;;;;;;;22.62;83.50;100013.38;107917;1280;22541;-82
2023/09/12 09:09:31;;;;;;;20.40;10.60;;;;;;;22.80;83.24;100017.30;109817;1280;22173;-81
2023/09/12 09:12:02;;;;;;;21.30;9.30;;;;;;;22.97;82.92;100019.67;109853;1277;22191;-81
2023/09/12 09:14:33;;;;;;;20.30;10.30;;;;;;;23.10;81.86;100022.09;109830;1283;22816;-83
2023/09/12 09:17:04;;;;;;;19.30;8.70;;;;;;;23.29;81.75;100023.09;109810;1284;22902;-82
2023/09/12 09:19:45;;;;;;;16.40;7.50;;;;;;;23.38;80.88;100025.40;109804;1284;22271;-83
2023/09/12 09:22:16;;;;;;;22.30;9.00;;;;;;;23.53;80.72;100025.43;109834;1284;22189;-84
2023/09/12 09:24:48;;;;;;;17.30;7.90;;;;;;;23.62;79.87;100023.01;109806;1284;22169;-83
2023/09/12 09:27:35;;;;;;;16.30;7.60;;;;;;;23.79;78.98;100025.08;109843;1284;22215;-84
2023/09/12 09:30:08;;;;;;;20.40;8.10;;;;;;;23.95;78.17;100022.18;109798;1283;22167;-83
2023/09/12 09:32:39;;;;;;;17.00;7.30;;;;;;;24.03;77.35;100022.73;109841;1284;22851;-83
2023/09/12 09:35:12;;;;;;;15.00;7.00;;;;;;;24.18;77.50;100023.23;109831;1284;22384;-83
2023/09/12 09:37:43;;;;;;;10.80;5.60;;;;;;;24.31;76.35;100019.36;109864;1284;22236;-81
2023/09/12 09:40:14;;;;;;;14.20;6.00;;;;;;;24.44;75.65;100021.77;109828;1280;22317;-81
2023/09/12 09:42:46;;;;;;;15.10;6.50;;;;;;;24.56;75.19;100018.90;109813;1284;22188;-81
2023/09/12 09:45:17;;;;;;;15.30;6.10;;;;;;;24.65;74.84;100017.62;109835;1272;22360;-80
2023/09/12 09:47:50;;;;;;;15.80;6.50;;;;;;;24.72;75.12;100014.45;109852;1282;23031;-81
2023/09/12 09:50:21;;;;;;;13.60;5.90;;;;;;;24.77;74.82;100010.46;109804;1280;22244;-80
2023/09/12 09:52:57;;;;;;;13.80;6.50;;;;;;;24.80;73.88;100008.73;109833;1270;22162;-80
2023/09/12 09:55:28;;;;;;;19.00;7.80;;;;;;;24.84;73.98;100006.34;109793;1272;22165;-81
2023/09/12 09:57:59;;;;;;;14.50;6.10;;;;;;;24.91;73.71;100009.45;109802;1284;22162;-81
2023/09/12 10:00:34;;;;;;;16.70;7.10;;;;;;;24.96;73.31;100009.08;109831;1284;22160;-81
2023/09/12 10:03:06;;;;;;;17.30;7.20;;;;;;;25.05;72.50;100004.36;109841;1284;22214;-83
2023/09/12 10:05:40;;;;;;;13.70;6.60;;;;;;;25.12;72.18;100004.52;109772;1277;22214;-83
2023/09/12 10:08:17;;;;;;;14.30;6.40;;;;;;;25.19;71.56;100005.13;109645;1284;260122;-83
2023/09/12 10:10:48;;;;;;;14.10;6.00;;;;;;;25.25;71.05;100005.91;109843;1283;22164;-81
2023/09/12 10:13:21;;;;;;;15.40;6.40;;;;;;;25.35;70.84;100004.08;109830;1283;22337;-81
2023/09/12 10:15:54;;;;;;;13.90;5.80;;;;;;;25.42;69.91;100002.08;109832;1280;22187;-81
2023/09/12 10:18:30;;;;;;;15.10;5.80;;;;;;;25.47;69.87;100001.80;109897;1284;22181;-81
2023/09/12 10:21:11;;;;;;;15.80;6.20;;;;;;;25.54;69.98;99998.95;109997;1284;22139;-81
2023/09/12 10:23:50;;;;;;;16.40;6.00;;;;;;;25.61;69.55;99997.67;109921;1279;23030;-81
2023/09/12 10:26:22;;;;;;;13.90;6.40;;;;;;;25.66;69.23;100002.23;109815;1284;22199;-81
2023/09/12 10:28:55;;;;;;;12.30;5.80;;;;;;;25.73;68.75;100001.48;109810;1283;22195;-81
2023/09/12 10:31:27;;;;;;;12.90;5.40;;;;;;;25.76;67.64;100000.05;109852;1264;22180;-80
2023/09/12 10:34:00;;;;;;;15.30;5.90;;;;;;;25.78;66.94;99998.95;109806;1284;23056;-80
2023/09/12 10:36:32;;;;;;;13.50;6.00;;;;;;;25.81;66.94;100000.74;109804;1284;22937;-81
2023/09/12 10:39:05;;;;;;;14.10;5.80;;;;;;;25.88;66.64;99997.29;109814;1284;22161;-81
2023/09/12 10:41:40;;;;;;;16.70;5.60;;;;;;;25.95;66.41;100006.31;109796;1284;22234;-81
2023/09/12 10:44:14;;;;;;;14.40;5.50;;;;;;;26.01;64.37;99997.08;109816;1284;22171;-81
2023/09/12 10:46:46;;;;;;;11.10;4.30;;;;;;;26.06;63.72;99997.46;109840;1283;22190;-81
2023/09/12 10:49:18;;;;;;;13.50;5.40;;;;;;;26.07;63.05;99994.48;109812;1284;22986;-81
2023/09/12 10:51:50;;;;;;;12.70;4.90;;;;;;;26.11;62.28;99994.21;109818;1284;22205;-80
2023/09/12 10:54:36;;;;;;;10.00;4.50;;;;;;;26.16;60.66;99995.47;109803;1284;22732;-81
2023/09/12 10:57:08;;;;;;;10.90;4.40;;;;;;;26.22;59.29;99993.52;109810;1284;23388;-81
2023/09/12 10:59:59;;;;;;;11.80;4.50;;;;;;;26.28;58.87;99992.73;109807;1283;22201;-81
2023/09/12 11:02:35;;;;;;;11.70;4.90;;;;;;;26.31;57.24;99989.07;109803;1284;22184;-81
2023/09/12 11:05:08;;;;;;;10.40;4.90;;;;;;;26.33;57.60;99984.11;109808;1284;23096;-81
2023/09/12 11:07:48;;;;;;;12.20;4.80;;;;;;;26.35;57.65;99984.44;109814;1284;22280;-80
2023/09/12 11:10:22;;;;;;;10.60;4.50;;;;;;;26.36;56.57;99985.88;109812;1283;22310;-81
2023/09/12 11:12:54;;;;;;;10.50;4.20;;;;;;;26.39;56.33;99982.29;109833;1280;22175;-81
2023/09/12 11:15:26;;;;;;;15.80;4.10;;;;;;;26.50;55.26;99983.25;109792;1283;22142;-81
2023/09/12 11:18:06;;;;;;;11.30;4.80;;;;;;;26.61;54.03;99982.71;109817;1284;23022;-81
2023/09/12 11:21:03;;;;;;;12.90;4.20;;;;;;;26.65;53.01;99979.84;109814;1283;22167;-81
2023/09/12 11:23:35;;;;;;;12.20;3.90;;;;;;;26.66;52.45;99976.23;109784;1283;22189;-81
2023/09/12 11:26:07;;;;;;;11.00;3.80;;;;;;;26.69;52.70;99979.00;109817;1277;22452;-81
2023/09/12 11:28:39;;;;;;;13.10;4.90;;;;;;;26.72;52.29;99978.84;109812;1284;22225;-80